Time;durP1;ratioP1;P1;durP2;ratioP2;P2;SDS_P1;SDS_P2;PMS_P1;PMS_P2;Temp;Humidity;BMP_temperature;BMP_pressure;BME280_temperature;BME280_humidity;BME280_pressure;Samples;Min_cycle;Max_cycle;Signal;HPM_P1;HPM_P2
2022/08/05 00:00:20;;;;;;;5.60;2.72;;;;;;;;;;4990885;28;20054;-65
2022/08/05 00:02:51;;;;;;;4.40;1.90;;;;;;;;;;5005209;28;20054;-64
2022/08/05 00:05:22;;;;;;;3.80;2.00;;;;;;;;;;5027382;28;20065;-63
2022/08/05 00:08:13;;;;;;;4.88;2.40;;;;;;;;;;5049965;28;20413;-63
2022/08/05 00:11:09;;;;;;;4.45;1.80;;;;;;;;;;5036561;28;20054;-63
2022/08/05 00:13:59;;;;;;;7.88;2.00;;;;;;;;;;5016888;28;20620;-64
2022/08/05 00:16:30;;;;;;;5.82;1.90;;;;;;;;;;5010102;28;20512;-64
2022/08/05 00:19:21;;;;;;;4.57;2.13;;;;;;;;;;4996904;28;20065;-64
2022/08/05 00:22:08;;;;;;;4.88;1.50;;;;;;;;;;5010338;28;20657;-64
2022/08/05 00:24:40;;;;;;;3.55;1.73;;;;;;;;;;4962356;28;20521;-65
2022/08/05 00:27:11;;;;;;;3.92;1.83;;;;;;;;;;5010361;28;20046;-64
2022/08/05 00:29:44;;;;;;;6.85;1.65;;;;;;;;;;4994622;28;20053;-64
2022/08/05 00:32:14;;;;;;;5.18;1.58;;;;;;;;;;4994104;28;20050;-64
2022/08/05 00:34:45;;;;;;;3.67;1.63;;;;;;;;;;4996945;28;20061;-64
2022/08/05 00:37:35;;;;;;;3.17;1.33;;;;;;;;;;5009918;28;20065;-64
2022/08/05 00:40:23;;;;;;;2.60;1.10;;;;;;;;;;4961222;28;20049;-67
2022/08/05 00:42:59;;;;;;;2.28;1.13;;;;;;;;;;5010021;28;20513;-64
2022/08/05 00:45:30;;;;;;;2.80;1.20;;;;;;;;;;5009761;28;20054;-64
2022/08/05 00:48:14;;;;;;;2.50;1.00;;;;;;;;;;5009306;28;20058;-64
2022/08/05 00:50:47;;;;;;;2.72;1.17;;;;;;;;;;5009362;28;20576;-64
2022/08/05 00:53:21;;;;;;;3.35;1.40;;;;;;;;;;5017574;28;20049;-64
2022/08/05 00:56:14;;;;;;;2.25;0.90;;;;;;;;;;5049277;28;20081;-64
2022/08/05 00:58:51;;;;;;;1.38;0.85;;;;;;;;;;5049024;28;20077;-64
2022/08/05 01:01:21;;;;;;;2.28;1.10;;;;;;;;;;4993463;28;20042;-63
2022/08/05 01:04:12;;;;;;;3.53;1.13;;;;;;;;;;4970612;28;20065;-64
2022/08/05 01:06:44;;;;;;;1.73;1.00;;;;;;;;;;4970186;28;20438;-66
2022/08/05 01:09:20;;;;;;;2.42;1.00;;;;;;;;;;4970269;28;20061;-64
2022/08/05 01:11:53;;;;;;;2.05;0.80;;;;;;;;;;4937025;29;20051;-63
2022/08/05 01:14:33;;;;;;;1.85;0.80;;;;;;;;;;4951052;29;20538;-63
2022/08/05 01:17:08;;;;;;;1.83;0.80;;;;;;;;;;4951266;29;20088;-63
2022/08/05 01:20:12;;;;;;;1.17;0.65;;;;;;;;;;4935234;29;20063;-63
2022/08/05 01:23:10;;;;;;;1.58;0.90;;;;;;;;;;4950896;29;20051;-63
2022/08/05 01:25:48;;;;;;;2.40;1.00;;;;;;;;;;4950868;29;20507;-65
2022/08/05 01:28:24;;;;;;;3.13;0.70;;;;;;;;;;4954540;28;20077;-64
2022/08/05 01:31:26;;;;;;;2.33;0.80;;;;;;;;;;4970107;28;20054;-63
2022/08/05 01:34:09;;;;;;;1.17;0.80;;;;;;;;;;4956929;28;20055;-64
2022/08/05 01:36:45;;;;;;;1.50;0.90;;;;;;;;;;4969868;28;20055;-63
2022/08/05 01:39:18;;;;;;;2.08;0.93;;;;;;;;;;4993603;28;20054;-63
2022/08/05 01:42:12;;;;;;;1.20;0.70;;;;;;;;;;5004368;28;20421;-64
2022/08/05 01:44:45;;;;;;;2.08;0.73;;;;;;;;;;5009078;28;20060;-62
2022/08/05 01:47:24;;;;;;;1.27;0.73;;;;;;;;;;4972560;28;20053;-63
2022/08/05 01:50:14;;;;;;;1.70;0.90;;;;;;;;;;5017942;28;20062;-63
2022/08/05 01:52:46;;;;;;;1.77;0.70;;;;;;;;;;5008709;28;20187;-62
2022/08/05 01:55:21;;;;;;;2.67;1.13;;;;;;;;;;4969843;28;20054;-62
2022/08/05 01:57:53;;;;;;;1.48;0.70;;;;;;;;;;4949980;28;20518;-62
2022/08/05 02:00:48;;;;;;;3.20;0.80;;;;;;;;;;4988634;28;20050;-64
2022/08/05 02:03:27;;;;;;;3.03;0.65;;;;;;;;;;4965801;28;20542;-63
2022/08/05 02:06:05;;;;;;;2.05;0.90;;;;;;;;;;4892885;29;20163;-63
2022/08/05 02:08:57;;;;;;;2.47;0.80;;;;;;;;;;4893405;29;20421;-63
2022/08/05 02:11:40;;;;;;;2.85;0.80;;;;;;;;;;4893512;29;20052;-63
2022/08/05 02:14:32;;;;;;;2.67;0.93;;;;;;;;;;4892533;29;20494;-63
2022/08/05 02:17:37;;;;;;;1.50;0.82;;;;;;;;;;4893021;29;20056;-63
2022/08/05 02:20:31;;;;;;;3.75;0.90;;;;;;;;;;4870231;29;20061;-63
2022/08/05 02:23:10;;;;;;;1.95;1.15;;;;;;;;;;4874495;29;20068;-62
2022/08/05 02:25:44;;;;;;;4.25;1.00;;;;;;;;;;4874123;29;20056;-64
2022/08/05 02:28:25;;;;;;;2.42;0.93;;;;;;;;;;4874165;29;20041;-64
2022/08/05 02:31:07;;;;;;;3.90;0.80;;;;;;;;;;4874461;29;20135;-63
2022/08/05 02:33:50;;;;;;;3.67;1.00;;;;;;;;;;4847099;29;20063;-64
2022/08/05 02:36:27;;;;;;;1.95;0.90;;;;;;;;;;4929403;29;20055;-64
2022/08/05 02:39:02;;;;;;;1.67;1.05;;;;;;;;;;4950388;28;20051;-65
2022/08/05 02:41:38;;;;;;;1.50;0.85;;;;;;;;;;4949186;28;20500;-63
2022/08/05 02:44:31;;;;;;;3.75;1.08;;;;;;;;;;4937742;28;20093;-63
2022/08/05 02:47:08;;;;;;;1.52;0.85;;;;;;;;;;4934372;29;20504;-63
2022/08/05 02:49:43;;;;;;;3.88;1.15;;;;;;;;;;4949505;29;20056;-63
2022/08/05 02:52:17;;;;;;;1.58;0.82;;;;;;;;;;4946130;29;20051;-63
2022/08/05 02:55:01;;;;;;;1.58;0.82;;;;;;;;;;4964378;28;20043;-64
2022/08/05 02:57:39;;;;;;;3.70;1.08;;;;;;;;;;4913718;28;20070;-64
2022/08/05 03:00:30;;;;;;;1.85;0.95;;;;;;;;;;4953262;29;20051;-64
2022/08/05 03:03:04;;;;;;;2.65;1.55;;;;;;;;;;4960076;28;20062;-63
2022/08/05 03:05:40;;;;;;;2.20;1.10;;;;;;;;;;4972510;28;20649;-64
2022/08/05 03:08:31;;;;;;;1.92;1.10;;;;;;;;;;4972484;28;20062;-64
2022/08/05 03:11:02;;;;;;;4.82;1.00;;;;;;;;;;4937561;29;20055;-65
2022/08/05 03:13:53;;;;;;;3.88;1.08;;;;;;;;;;4953040;29;20063;-64
2022/08/05 03:16:32;;;;;;;6.88;1.25;;;;;;;;;;4953063;29;20062;-63
2022/08/05 03:19:04;;;;;;;2.35;1.30;;;;;;;;;;4952781;29;20062;-64
2022/08/05 03:21:44;;;;;;;1.92;1.02;;;;;;;;;;4933326;29;20056;-64
2022/08/05 03:24:22;;;;;;;1.77;1.08;;;;;;;;;;4933637;29;20067;-63
2022/08/05 03:27:00;;;;;;;5.78;1.63;;;;;;;;;;4908925;28;20059;-64
2022/08/05 03:29:34;;;;;;;3.25;1.20;;;;;;;;;;4921267;29;20055;-63
2022/08/05 03:32:25;;;;;;;2.28;1.45;;;;;;;;;;4960842;28;20428;-63
2022/08/05 03:34:59;;;;;;;4.43;1.15;;;;;;;;;;4980965;28;20066;-63
2022/08/05 03:37:33;;;;;;;2.75;0.95;;;;;;;;;;4973730;28;20046;-63
2022/08/05 03:40:14;;;;;;;1.85;1.15;;;;;;;;;;4991241;28;20050;-63
2022/08/05 03:42:59;;;;;;;;;;;;;;;;;;4991462;28;20541;-63
2022/08/05 03:45:55;;;;;;;4.88;1.60;;;;;;;;;;5018103;28;19921;-65
2022/08/05 03:48:28;;;;;;;2.58;1.13;;;;;;;;;;5030315;28;20636;-64
2022/08/05 03:51:12;;;;;;;2.42;1.20;;;;;;;;;;4997769;28;20049;-64
2022/08/05 03:54:12;;;;;;;1.60;1.10;;;;;;;;;;5030419;28;20050;-65
2022/08/05 03:57:04;;;;;;;2.22;1.30;;;;;;;;;;5023101;28;20386;-63
2022/08/05 03:59:51;;;;;;;2.78;1.10;;;;;;;;;;5003680;28;20049;-63
2022/08/05 04:02:27;;;;;;;2.60;1.15;;;;;;;;;;5010543;28;20060;-63
2022/08/05 04:05:15;;;;;;;2.97;1.33;;;;;;;;;;5010287;28;20054;-64
2022/08/05 04:07:47;;;;;;;2.88;1.30;;;;;;;;;;5010718;28;20058;-63
2022/08/05 04:10:28;;;;;;;3.40;1.25;;;;;;;;;;4995083;28;20054;-63
2022/08/05 04:13:07;;;;;;;2.13;1.10;;;;;;;;;;5010460;28;20049;-64
2022/08/05 04:15:37;;;;;;;6.78;1.20;;;;;;;;;;4961620;28;20050;-65
2022/08/05 04:18:28;;;;;;;2.28;1.08;;;;;;;;;;5010532;28;20552;-64
2022/08/05 04:20:59;;;;;;;3.05;1.02;;;;;;;;;;5010354;28;20069;-64
2022/08/05 04:23:34;;;;;;;2.22;1.05;;;;;;;;;;5010116;28;20410;-65
2022/08/05 04:26:24;;;;;;;1.63;0.90;;;;;;;;;;5010144;28;20060;-64
2022/08/05 04:29:01;;;;;;;2.13;1.25;;;;;;;;;;4993303;28;20061;-64
2022/08/05 04:31:35;;;;;;;3.92;0.93;;;;;;;;;;4990346;28;20058;-64
2022/08/05 04:34:06;;;;;;;2.60;1.02;;;;;;;;;;4975852;28;20053;-64
2022/08/05 04:36:57;;;;;;;1.85;0.95;;;;;;;;;;4996446;28;20050;-64
2022/08/05 04:39:29;;;;;;;1.90;1.05;;;;;;;;;;4977174;28;20433;-64
2022/08/05 04:42:00;;;;;;;1.63;0.85;;;;;;;;;;5012898;28;20162;-64
2022/08/05 04:44:31;;;;;;;1.95;1.23;;;;;;;;;;5029468;28;20045;-64
2022/08/05 04:47:01;;;;;;;2.33;1.10;;;;;;;;;;5029415;28;20528;-64
2022/08/05 04:49:39;;;;;;;2.38;1.25;;;;;;;;;;5029242;28;20057;-63
2022/08/05 04:52:29;;;;;;;1.98;1.15;;;;;;;;;;4970420;28;20062;-64
2022/08/05 04:55:02;;;;;;;3.80;1.02;;;;;;;;;;4970020;28;20051;-63
2022/08/05 04:57:45;;;;;;;2.08;0.93;;;;;;;;;;4965195;28;20055;-66
2022/08/05 05:00:22;;;;;;;2.95;1.08;;;;;;;;;;4951229;29;20051;-63
2022/08/05 05:02:53;;;;;;;3.63;1.30;;;;;;;;;;4962624;28;20058;-66
2022/08/05 05:05:27;;;;;;;2.22;1.30;;;;;;;;;;4970549;28;20062;-65
2022/08/05 05:08:00;;;;;;;;;;;;;;;;;;4970612;28;20063;-66
2022/08/05 05:10:32;;;;;;;2.05;1.10;;;;;;;;;;4954390;28;19922;-64
2022/08/05 05:13:03;;;;;;;3.53;1.33;;;;;;;;;;5008941;28;20414;-65
2022/08/05 05:15:35;;;;;;;2.78;1.48;;;;;;;;;;4976713;28;20061;-65
2022/08/05 05:18:25;;;;;;;3.30;1.27;;;;;;;;;;5009021;28;20057;-64
2022/08/05 05:21:02;;;;;;;4.75;1.80;;;;;;;;;;5009025;28;20410;-64
2022/08/05 05:23:34;;;;;;;2.33;1.00;;;;;;;;;;4976520;28;20058;-66
2022/08/05 05:26:24;;;;;;;5.20;1.02;;;;;;;;;;5008927;28;20049;-64
2022/08/05 05:29:00;;;;;;;2.38;1.00;;;;;;;;;;5009879;28;20053;-64
2022/08/05 05:31:43;;;;;;;1.70;1.20;;;;;;;;;;5028641;28;20429;-64
2022/08/05 05:34:14;;;;;;;1.40;0.95;;;;;;;;;;5030374;28;20057;-66
2022/08/05 05:36:52;;;;;;;2.70;1.02;;;;;;;;;;5068678;28;20060;-64
2022/08/05 05:39:22;;;;;;;2.25;0.95;;;;;;;;;;5068613;28;20056;-65
2022/08/05 05:41:59;;;;;;;2.70;0.80;;;;;;;;;;5035349;28;20061;-63
2022/08/05 05:44:30;;;;;;;1.48;0.73;;;;;;;;;;5069601;28;20048;-64
2022/08/05 05:47:11;;;;;;;2.03;0.98;;;;;;;;;;5073947;28;20052;-64
2022/08/05 05:49:49;;;;;;;2.60;0.60;;;;;;;;;;5070914;28;20056;-64
2022/08/05 05:52:25;;;;;;;1.10;0.60;;;;;;;;;;5073203;28;20052;-64
2022/08/05 05:55:09;;;;;;;1.02;0.43;;;;;;;;;;5055174;28;20059;-66
2022/08/05 05:57:43;;;;;;;2.20;0.52;;;;;;;;;;5088933;28;20500;-65
2022/08/05 06:00:22;;;;;;;0.90;0.57;;;;;;;;;;5088409;28;20051;-64
2022/08/05 06:03:02;;;;;;;0.68;0.38;;;;;;;;;;5088364;28;20063;-64
2022/08/05 06:05:53;;;;;;;0.82;0.52;;;;;;;;;;5090489;28;20056;-65
2022/08/05 06:08:24;;;;;;;1.15;0.40;;;;;;;;;;5092582;28;20060;-65
2022/08/05 06:11:01;;;;;;;2.45;0.90;;;;;;;;;;5092726;28;20051;-65
2022/08/05 06:13:32;;;;;;;1.98;0.50;;;;;;;;;;5076554;28;20055;-64
2022/08/05 06:16:18;;;;;;;2.05;0.52;;;;;;;;;;5092930;28;20048;-64
2022/08/05 06:19:00;;;;;;;0.63;0.43;;;;;;;;;;5042489;28;20060;-66
2022/08/05 06:21:36;;;;;;;0.93;0.65;;;;;;;;;;5052138;28;20045;-64
2022/08/05 06:24:18;;;;;;;1.10;0.70;;;;;;;;;;5037284;28;20056;-64
2022/08/05 06:26:55;;;;;;;0.80;0.45;;;;;;;;;;5052133;28;20166;-63
2022/08/05 06:29:25;;;;;;;0.85;0.47;;;;;;;;;;5018414;28;20452;-64
2022/08/05 06:32:16;;;;;;;3.90;0.77;;;;;;;;;;5051764;28;20432;-64
2022/08/05 06:34:57;;;;;;;1.42;0.43;;;;;;;;;;5015396;28;20053;-64
2022/08/05 06:37:34;;;;;;;0.65;0.30;;;;;;;;;;5032176;28;20066;-64
2022/08/05 06:40:24;;;;;;;0.80;0.50;;;;;;;;;;5031398;28;20050;-68
2022/08/05 06:42:56;;;;;;;1.85;0.50;;;;;;;;;;5016048;28;20411;-65
2022/08/05 06:45:26;;;;;;;1.02;0.40;;;;;;;;;;5031572;28;20053;-64
2022/08/05 06:48:16;;;;;;;1.10;0.32;;;;;;;;;;5031679;28;20046;-65
2022/08/05 06:51:07;;;;;;;0.50;0.20;;;;;;;;;;4992102;28;20061;-64
2022/08/05 06:53:51;;;;;;;0.95;0.38;;;;;;;;;;4992669;28;20062;-63
2022/08/05 06:56:22;;;;;;;0.80;0.40;;;;;;;;;;4972570;28;20050;-66
2022/08/05 06:58:56;;;;;;;1.27;0.52;;;;;;;;;;4972624;28;20054;-64
2022/08/05 07:01:28;;;;;;;0.60;0.50;;;;;;;;;;4972858;28;20131;-64
2022/08/05 07:04:01;;;;;;;0.30;0.30;;;;;;;;;;4972747;28;20061;-65
2022/08/05 07:06:31;;;;;;;0.45;0.22;;;;;;;;;;4972788;28;20054;-64
2022/08/05 07:09:04;;;;;;;0.70;0.45;;;;;;;;;;4956515;28;20055;-64
2022/08/05 07:11:34;;;;;;;0.40;0.30;;;;;;;;;;4943731;28;20055;-64
2022/08/05 07:17:02;;;;;;;1.00;0.50;;;;;;;;;;5010611;28;20053;-64
2022/08/05 07:19:55;;;;;;;0.82;0.40;;;;;;;;;;5011243;28;20057;-64
2022/08/05 07:22:45;;;;;;;1.83;0.20;;;;;;;;;;5011037;28;20072;-65
2022/08/05 07:25:19;;;;;;;0.28;0.20;;;;;;;;;;4991603;28;20057;-64
2022/08/05 07:28:10;;;;;;;0.95;0.85;;;;;;;;;;4988231;28;20075;-64
2022/08/05 07:30:45;;;;;;;0.60;0.60;;;;;;;;;;5031050;28;20382;-66
2022/08/05 07:33:20;;;;;;;0.70;0.35;;;;;;;;;;5039780;28;20099;-65
2022/08/05 07:36:05;;;;;;;0.77;0.43;;;;;;;;;;5070520;28;20048;-67
2022/08/05 07:38:49;;;;;;;0.98;0.40;;;;;;;;;;5070592;28;20078;-66
2022/08/05 07:41:24;;;;;;;0.50;0.30;;;;;;;;;;5070909;28;20535;-63
2022/08/05 07:44:14;;;;;;;;;;;;;;;;;;5071203;28;20049;-64
2022/08/05 07:46:48;;;;;;;1.05;0.55;;;;;;;;;;5037315;28;19944;-65
2022/08/05 07:49:19;;;;;;;1.23;0.40;;;;;;;;;;5070390;28;20056;-63
2022/08/05 07:51:49;;;;;;;1.27;0.43;;;;;;;;;;5021056;28;20412;-64
2022/08/05 07:54:27;;;;;;;0.50;0.32;;;;;;;;;;5054798;28;20056;-63
2022/08/05 07:57:02;;;;;;;1.88;0.60;;;;;;;;;;5070865;28;20045;-63
2022/08/05 07:59:53;;;;;;;0.68;0.35;;;;;;;;;;5050637;28;20497;-64
2022/08/05 08:02:25;;;;;;;1.23;0.65;;;;;;;;;;5059772;28;20527;-63
2022/08/05 08:05:16;;;;;;;1.67;0.63;;;;;;;;;;5090504;28;20053;-64
2022/08/05 08:07:47;;;;;;;1.17;0.50;;;;;;;;;;5017238;28;20433;-64
2022/08/05 08:10:29;;;;;;;0.80;0.43;;;;;;;;;;5050383;28;20061;-64
2022/08/05 08:13:00;;;;;;;1.33;0.65;;;;;;;;;;5050367;28;20053;-63
2022/08/05 08:15:30;;;;;;;0.57;0.45;;;;;;;;;;5050249;28;20053;-64
2022/08/05 08:18:21;;;;;;;0.73;0.52;;;;;;;;;;5050255;28;20057;-63
2022/08/05 08:20:52;;;;;;;1.30;0.60;;;;;;;;;;5049762;28;20060;-63
2022/08/05 08:23:32;;;;;;;1.08;0.73;;;;;;;;;;5050059;28;20409;-63
2022/08/05 08:26:22;;;;;;;1.58;0.40;;;;;;;;;;5049689;28;20068;-63
2022/08/05 08:28:59;;;;;;;0.63;0.30;;;;;;;;;;5048592;28;20221;-64
2022/08/05 08:31:51;;;;;;;0.70;0.38;;;;;;;;;;5036612;28;20413;-64
2022/08/05 08:34:23;;;;;;;0.40;0.30;;;;;;;;;;5009900;28;20429;-64
2022/08/05 08:37:01;;;;;;;0.68;0.43;;;;;;;;;;5010016;28;20160;-64
2022/08/05 08:39:33;;;;;;;;;;;;;;;;;;4977629;28;20418;-63
2022/08/05 08:42:08;;;;;;;0.52;0.40;;;;;;;;;;5013619;28;19928;-65
2022/08/05 08:45:01;;;;;;;0.32;0.22;;;;;;;;;;4996696;28;20070;-63
2022/08/05 08:47:54;;;;;;;0.90;0.38;;;;;;;;;;4970624;28;20062;-64
2022/08/05 08:50:43;;;;;;;0.63;0.32;;;;;;;;;;4957132;28;20059;-64
2022/08/05 08:53:37;;;;;;;0.80;0.35;;;;;;;;;;4970483;28;20058;-64
2022/08/05 08:56:13;;;;;;;1.70;1.00;;;;;;;;;;4951201;28;20058;-63
2022/08/05 08:58:43;;;;;;;1.50;0.68;;;;;;;;;;4926559;28;20055;-64
2022/08/05 09:01:18;;;;;;;1.00;0.65;;;;;;;;;;4990198;28;20525;-65
2022/08/05 09:03:51;;;;;;;0.82;0.40;;;;;;;;;;4989925;28;20734;-66
2022/08/05 09:06:28;;;;;;;0.82;0.40;;;;;;;;;;4989929;28;20054;-65
2022/08/05 09:09:00;;;;;;;0.60;0.38;;;;;;;;;;4989777;28;20077;-65
2022/08/05 09:11:35;;;;;;;0.95;0.52;;;;;;;;;;4975999;28;20050;-65
2022/08/05 09:14:22;;;;;;;1.13;0.43;;;;;;;;;;4989536;28;20061;-65
2022/08/05 09:17:13;;;;;;;0.65;0.35;;;;;;;;;;4989854;28;20077;-69
2022/08/05 09:20:05;;;;;;;0.85;0.43;;;;;;;;;;4989479;28;20061;-66
2022/08/05 09:23:05;;;;;;;0.52;0.32;;;;;;;;;;4979741;28;20037;-66
2022/08/05 09:26:04;;;;;;;0.65;0.28;;;;;;;;;;4957137;28;20620;-64
2022/08/05 09:28:38;;;;;;;1.00;0.43;;;;;;;;;;5008559;28;20050;-63
2022/08/05 09:31:11;;;;;;;0.68;0.32;;;;;;;;;;4993203;28;20445;-65
2022/08/05 09:34:06;;;;;;;2.22;0.60;;;;;;;;;;5031452;28;20053;-65
2022/08/05 09:36:56;;;;;;;2.78;1.45;;;;;;;;;;5028579;28;20052;-64
2022/08/05 09:39:29;;;;;;;1.00;0.50;;;;;;;;;;5008673;28;20042;-64
2022/08/05 09:42:16;;;;;;;0.70;0.50;;;;;;;;;;4994834;28;20058;-66
2022/08/05 09:45:05;;;;;;;0.68;0.50;;;;;;;;;;5008894;28;20049;-65
2022/08/05 09:47:55;;;;;;;0.77;0.38;;;;;;;;;;4988829;28;20050;-65
2022/08/05 09:50:36;;;;;;;1.20;0.80;;;;;;;;;;4936949;28;20054;-65
2022/08/05 09:53:16;;;;;;;1.20;0.43;;;;;;;;;;4969640;28;20459;-66
2022/08/05 09:56:07;;;;;;;1.60;0.50;;;;;;;;;;4982848;28;20506;-66
2022/08/05 09:58:41;;;;;;;1.10;0.70;;;;;;;;;;4949923;29;20088;-65
2022/08/05 10:01:18;;;;;;;3.45;0.82;;;;;;;;;;4935606;29;20186;-66
2022/08/05 10:04:05;;;;;;;1.38;0.52;;;;;;;;;;4904119;29;20067;-65
2022/08/05 10:06:52;;;;;;;0.98;0.40;;;;;;;;;;4943754;29;20066;-66
2022/08/05 10:09:28;;;;;;;1.45;0.60;;;;;;;;;;4949788;29;20051;-65
2022/08/05 10:12:13;;;;;;;1.23;0.68;;;;;;;;;;4936180;29;20051;-64
2022/08/05 10:15:25;;;;;;;1.40;0.90;;;;;;;;;;4922067;29;20055;-66
2022/08/05 10:18:08;;;;;;;1.50;0.73;;;;;;;;;;4902745;29;20052;-63
2022/08/05 10:20:41;;;;;;;1.42;0.88;;;;;;;;;;4947932;29;20605;-66
2022/08/05 10:23:19;;;;;;;2.03;0.60;;;;;;;;;;4931056;29;20055;-65
2022/08/05 10:26:13;;;;;;;1.90;0.75;;;;;;;;;;4945093;29;20055;-65
2022/08/05 10:28:46;;;;;;;2.40;0.63;;;;;;;;;;4950067;29;20059;-65
2022/08/05 10:31:17;;;;;;;1.67;0.50;;;;;;;;;;4950295;29;20561;-64
2022/08/05 10:34:09;;;;;;;2.00;0.60;;;;;;;;;;4962514;28;20514;-63
2022/08/05 10:36:41;;;;;;;1.83;0.52;;;;;;;;;;4972296;28;20054;-65
2022/08/05 10:39:24;;;;;;;1.83;0.88;;;;;;;;;;5027966;28;20544;-64
2022/08/05 10:42:23;;;;;;;1.35;0.40;;;;;;;;;;5028098;28;20691;-66
2022/08/05 10:45:06;;;;;;;3.22;0.40;;;;;;;;;;4993455;28;20534;-66
2022/08/05 10:47:52;;;;;;;1.02;0.50;;;;;;;;;;5024260;28;20058;-66
2022/08/05 10:51:09;;;;;;;1.30;0.60;;;;;;;;;;5062199;28;20051;-66
2022/08/05 10:53:50;;;;;;;1.33;0.77;;;;;;;;;;5070887;28;20063;-66
2022/08/05 10:56:25;;;;;;;0.77;0.30;;;;;;;;;;5071524;28;20044;-66
2022/08/05 10:58:59;;;;;;;0.60;0.22;;;;;;;;;;5071659;28;20040;-67
2022/08/05 11:01:45;;;;;;;3.08;0.90;;;;;;;;;;5071413;28;20067;-66
2022/08/05 11:04:30;;;;;;;3.22;0.90;;;;;;;;;;5056916;28;20059;-66
2022/08/05 11:07:05;;;;;;;1.70;0.75;;;;;;;;;;5021569;28;20052;-68
2022/08/05 11:09:45;;;;;;;3.35;0.93;;;;;;;;;;5071459;28;20048;-65
2022/08/05 11:12:42;;;;;;;3.40;0.70;;;;;;;;;;5071610;28;20049;-66
2022/08/05 11:15:33;;;;;;;1.90;0.85;;;;;;;;;;5020752;28;20056;-65
2022/08/05 11:18:27;;;;;;;4.72;1.02;;;;;;;;;;5071194;28;20500;-66
2022/08/05 11:21:01;;;;;;;1.35;0.77;;;;;;;;;;5038131;28;20551;-67
2022/08/05 11:23:54;;;;;;;1.50;0.40;;;;;;;;;;5070919;28;20093;-66
2022/08/05 11:26:42;;;;;;;0.95;0.40;;;;;;;;;;5037907;28;20052;-67
2022/08/05 11:29:35;;;;;;;1.02;0.52;;;;;;;;;;5071128;28;20052;-65
2022/08/05 11:32:34;;;;;;;0.57;0.30;;;;;;;;;;5071392;28;20110;-67
2022/08/05 11:35:06;;;;;;;0.93;0.60;;;;;;;;;;4991359;28;20091;-67
2022/08/05 11:37:59;;;;;;;0.47;0.22;;;;;;;;;;4991477;28;20739;-66
2022/08/05 11:41:04;;;;;;;1.30;0.63;;;;;;;;;;4991301;28;20058;-67
2022/08/05 11:44:14;;;;;;;1.42;0.40;;;;;;;;;;4991577;28;20073;-66
2022/08/05 11:47:06;;;;;;;5.60;1.70;;;;;;;;;;4991742;28;20054;-66
2022/08/05 11:49:40;;;;;;;3.17;1.33;;;;;;;;;;4991231;28;20058;-66
2022/08/05 11:52:28;;;;;;;1.73;0.70;;;;;;;;;;4961662;28;20050;-65
2022/08/05 11:55:00;;;;;;;1.55;0.65;;;;;;;;;;4991499;28;20418;-65
2022/08/05 11:57:36;;;;;;;1.83;0.90;;;;;;;;;;4958953;28;20557;-65
2022/08/05 12:00:31;;;;;;;3.42;1.15;;;;;;;;;;4983815;28;20057;-66
2022/08/05 12:03:22;;;;;;;0.93;0.63;;;;;;;;;;5030239;28;20405;-67
2022/08/05 12:06:03;;;;;;;1.15;0.43;;;;;;;;;;5030146;28;20065;-66
2022/08/05 12:08:53;;;;;;;2.95;0.75;;;;;;;;;;5014470;28;20041;-66
2022/08/05 12:11:25;;;;;;;1.85;0.82;;;;;;;;;;5056809;28;20071;-66
2022/08/05 12:14:08;;;;;;;1.90;0.73;;;;;;;;;;5059442;28;20052;-65
2022/08/05 12:16:41;;;;;;;0.93;0.70;;;;;;;;;;5090127;28;20079;-64
2022/08/05 12:19:16;;;;;;;0.75;0.52;;;;;;;;;;5090272;28;20056;-64
2022/08/05 12:22:06;;;;;;;1.63;0.52;;;;;;;;;;5076514;28;20082;-64
2022/08/05 12:24:43;;;;;;;1.65;0.50;;;;;;;;;;5089993;28;20055;-66
2022/08/05 12:27:31;;;;;;;1.08;0.45;;;;;;;;;;5072927;28;20146;-67
2022/08/05 12:30:09;;;;;;;2.70;0.60;;;;;;;;;;5056470;28;20102;-66
2022/08/05 12:32:47;;;;;;;1.35;0.60;;;;;;;;;;5073240;28;20550;-66
2022/08/05 12:35:18;;;;;;;1.40;0.63;;;;;;;;;;5089827;28;20396;-67
2022/08/05 12:37:50;;;;;;;1.25;0.45;;;;;;;;;;5049432;28;20045;-66
2022/08/05 12:40:28;;;;;;;0.90;0.45;;;;;;;;;;5049453;28;20155;-66
2022/08/05 12:42:59;;;;;;;1.20;0.50;;;;;;;;;;4996770;28;20049;-65
2022/08/05 12:45:29;;;;;;;2.90;1.35;;;;;;;;;;4996504;28;20076;-65
2022/08/05 12:48:18;;;;;;;1.60;0.40;;;;;;;;;;4976436;28;20046;-65
2022/08/05 12:51:19;;;;;;;2.13;1.00;;;;;;;;;;4990461;28;20422;-65
2022/08/05 12:54:09;;;;;;;2.35;0.90;;;;;;;;;;4999297;28;20118;-65
2022/08/05 12:56:50;;;;;;;2.80;1.20;;;;;;;;;;5009649;28;20062;-65
2022/08/05 12:59:27;;;;;;;3.40;1.00;;;;;;;;;;4989587;28;20062;-65
2022/08/05 13:02:24;;;;;;;2.20;0.98;;;;;;;;;;4989793;28;20077;-65
2022/08/05 13:04:58;;;;;;;1.85;0.77;;;;;;;;;;4990160;28;20074;-65
2022/08/05 13:07:30;;;;;;;1.48;0.40;;;;;;;;;;4989880;28;20069;-64
2022/08/05 13:10:22;;;;;;;1.63;0.82;;;;;;;;;;4990105;28;20060;-67
2022/08/05 13:12:57;;;;;;;2.92;1.60;;;;;;;;;;4989922;28;20761;-64
2022/08/05 13:15:31;;;;;;;1.23;0.50;;;;;;;;;;4957355;28;20058;-65
2022/08/05 13:18:18;;;;;;;1.15;0.52;;;;;;;;;;4976453;28;20046;-66
2022/08/05 13:20:52;;;;;;;4.10;1.90;;;;;;;;;;5021105;28;20054;-66
2022/08/05 13:23:24;;;;;;;1.23;0.70;;;;;;;;;;4970013;28;20472;-65
2022/08/05 13:25:56;;;;;;;4.88;2.72;;;;;;;;;;4969645;28;20082;-65
2022/08/05 13:28:29;;;;;;;3.28;1.35;;;;;;;;;;4970070;28;20054;-66
2022/08/05 13:31:01;;;;;;;2.35;0.90;;;;;;;;;;4983725;28;20062;-65
2022/08/05 13:33:42;;;;;;;2.20;0.70;;;;;;;;;;4989988;28;20050;-66
2022/08/05 13:36:33;;;;;;;2.55;1.20;;;;;;;;;;4989285;28;20057;-66
2022/08/05 13:39:05;;;;;;;2.65;0.95;;;;;;;;;;4989358;28;20188;-66
2022/08/05 13:41:56;;;;;;;1.40;0.73;;;;;;;;;;4989268;28;20046;-66
2022/08/05 13:44:27;;;;;;;2.97;1.25;;;;;;;;;;4989316;28;20061;-66
2022/08/05 13:46:57;;;;;;;3.60;1.52;;;;;;;;;;4992315;28;20486;-65
2022/08/05 13:49:37;;;;;;;1.48;0.82;;;;;;;;;;5008359;28;20050;-65
2022/08/05 13:52:17;;;;;;;1.20;0.70;;;;;;;;;;4960443;28;20053;-65
2022/08/05 13:54:57;;;;;;;2.60;1.50;;;;;;;;;;4978248;28;20518;-66
2022/08/05 13:57:29;;;;;;;1.20;0.73;;;;;;;;;;5008953;28;20545;-65
2022/08/05 14:00:22;;;;;;;1.80;0.88;;;;;;;;;;4992808;28;20053;-65
2022/08/05 14:02:56;;;;;;;1.48;1.00;;;;;;;;;;5003992;28;20069;-66
2022/08/05 14:05:30;;;;;;;1.38;0.80;;;;;;;;;;4969337;28;20193;-66
2022/08/05 14:08:20;;;;;;;3.45;1.00;;;;;;;;;;4949889;29;20051;-67
2022/08/05 14:11:00;;;;;;;1.77;1.00;;;;;;;;;;4915359;29;20065;-66
2022/08/05 14:13:49;;;;;;;2.90;1.45;;;;;;;;;;4950198;29;20063;-65
2022/08/05 14:16:25;;;;;;;1.02;0.73;;;;;;;;;;4950142;29;20056;-65
2022/08/05 14:18:55;;;;;;;2.22;0.80;;;;;;;;;;4950306;29;20482;-65
2022/08/05 14:21:32;;;;;;;2.28;0.80;;;;;;;;;;4950223;29;20387;-63
2022/08/05 14:24:23;;;;;;;1.02;0.63;;;;;;;;;;4950346;29;20055;-66
2022/08/05 14:26:53;;;;;;;1.70;0.85;;;;;;;;;;4951735;28;20062;-64
2022/08/05 14:29:43;;;;;;;1.48;0.70;;;;;;;;;;4954151;29;20059;-66
2022/08/05 14:32:19;;;;;;;1.13;0.82;;;;;;;;;;4953901;29;20047;-64
2022/08/05 14:34:56;;;;;;;1.42;0.70;;;;;;;;;;4953747;28;20070;-65
2022/08/05 14:37:27;;;;;;;1.23;0.82;;;;;;;;;;4974990;28;20051;-65
2022/08/05 14:40:16;;;;;;;2.05;1.23;;;;;;;;;;4973052;28;20059;-64
2022/08/05 14:42:46;;;;;;;3.88;0.93;;;;;;;;;;4987182;28;20061;-64
2022/08/05 14:45:17;;;;;;;2.78;1.13;;;;;;;;;;5001002;28;20081;-67
2022/08/05 14:47:47;;;;;;;3.20;1.10;;;;;;;;;;5026075;28;20156;-64
2022/08/05 14:50:34;;;;;;;1.92;1.13;;;;;;;;;;5057532;28;20184;-67
2022/08/05 14:53:08;;;;;;;2.65;0.80;;;;;;;;;;5056126;28;20055;-65
2022/08/05 14:55:39;;;;;;;1.77;1.23;;;;;;;;;;5051258;28;20049;-65
2022/08/05 14:58:11;;;;;;;2.05;1.13;;;;;;;;;;5051424;28;20053;-64
2022/08/05 15:00:42;;;;;;;2.85;0.95;;;;;;;;;;5051638;28;20049;-64
2022/08/05 15:03:29;;;;;;;2.88;1.30;;;;;;;;;;5051339;28;20503;-65
2022/08/05 15:06:03;;;;;;;1.85;0.82;;;;;;;;;;5051382;28;20056;-64
2022/08/05 15:08:44;;;;;;;4.20;1.50;;;;;;;;;;5051127;28;20064;-64
2022/08/05 15:11:33;;;;;;;4.95;1.90;;;;;;;;;;5065135;28;20389;-64
2022/08/05 15:14:21;;;;;;;4.25;1.80;;;;;;;;;;5047267;28;20054;-64
2022/08/05 15:17:11;;;;;;;4.25;1.92;;;;;;;;;;5017831;28;20128;-64
2022/08/05 15:20:03;;;;;;;4.47;1.60;;;;;;;;;;5031248;28;20485;-63
2022/08/05 15:22:33;;;;;;;6.25;2.38;;;;;;;;;;5031179;28;20056;-65
2022/08/05 15:25:05;;;;;;;9.55;4.43;;;;;;;;;;5050816;28;20045;-64
2022/08/05 15:27:42;;;;;;;6.72;3.13;;;;;;;;;;5051046;28;20060;-63
2022/08/05 15:30:23;;;;;;;7.90;3.63;;;;;;;;;;5051074;28;20057;-63
2022/08/05 15:32:54;;;;;;;8.85;3.70;;;;;;;;;;4978211;28;20046;-64
2022/08/05 15:35:26;;;;;;;4.93;2.67;;;;;;;;;;5011145;28;20058;-63
2022/08/05 15:38:04;;;;;;;6.05;3.13;;;;;;;;;;4951944;28;20451;-64
2022/08/05 15:40:55;;;;;;;6.13;2.78;;;;;;;;;;4933241;29;20051;-63
2022/08/05 15:43:45;;;;;;;4.55;2.40;;;;;;;;;;4933673;29;20052;-63
2022/08/05 15:46:15;;;;;;;6.93;2.78;;;;;;;;;;4933487;29;20055;-65
2022/08/05 15:48:46;;;;;;;4.72;2.55;;;;;;;;;;4932963;29;20067;-64
2022/08/05 15:51:27;;;;;;;4.28;2.00;;;;;;;;;;4886547;29;20071;-64
2022/08/05 15:54:18;;;;;;;5.28;2.17;;;;;;;;;;4933215;28;20055;-64
2022/08/05 15:57:05;;;;;;;4.47;1.98;;;;;;;;;;4914004;29;20048;-64
2022/08/05 15:59:36;;;;;;;4.60;2.13;;;;;;;;;;4914230;29;20394;-65
2022/08/05 16:02:07;;;;;;;4.50;1.50;;;;;;;;;;4887675;29;20413;-64
2022/08/05 16:04:53;;;;;;;3.15;1.23;;;;;;;;;;4932909;29;20729;-63